createdAt,value
2022-08-16T00:00:22.851Z,81.3
2022-08-16T00:01:17.341Z,81.6
2022-08-16T00:02:16.873Z,82.0
2022-08-16T00:03:17.545Z,82.3
2022-08-16T00:04:17.284Z,82.7
2022-08-16T00:05:17.937Z,82.9
2022-08-16T00:06:17.398Z,83.0
2022-08-16T00:07:17.094Z,83.2
2022-08-16T00:08:30.551Z,83.5
2022-08-16T00:09:16.799Z,83.8
2022-08-16T00:10:21.372Z,84.0
2022-08-16T00:11:17.094Z,83.9
2022-08-16T00:12:18.637Z,83.8
2022-08-16T00:13:17.911Z,83.7
2022-08-16T00:14:18.600Z,83.8
2022-08-16T00:15:17.467Z,84.2
2022-08-16T00:16:58.072Z,84.1
2022-08-16T00:17:19.674Z,84.6
2022-08-16T00:18:17.125Z,85.1
2022-08-16T00:19:16.829Z,85.2
2022-08-16T00:20:21.193Z,85.3
2022-08-16T00:21:17.418Z,84.9
2022-08-16T00:22:20.879Z,85.2
2022-08-16T00:23:17.369Z,85.7
2022-08-16T00:24:31.013Z,85.8
2022-08-16T00:25:16.877Z,86.0
2022-08-16T00:26:34.211Z,86.6
2022-08-16T00:27:17.699Z,86.7
2022-08-16T00:28:17.530Z,86.9
2022-08-16T00:29:16.994Z,86.9
2022-08-16T00:30:28.892Z,86.8
2022-08-16T00:31:24.449Z,86.8
2022-08-16T00:32:18.647Z,86.8
2022-08-16T00:33:17.079Z,87.1
2022-08-16T00:34:18.742Z,86.9
2022-08-16T00:35:17.155Z,87.0
2022-08-16T00:36:16.584Z,87.2
2022-08-16T00:37:20.425Z,87.5
2022-08-16T00:38:40.401Z,87.7
2022-08-16T00:39:16.845Z,88.0
2022-08-16T00:40:33.804Z,88.1
2022-08-16T00:41:17.378Z,88.2
2022-08-16T00:42:29.865Z,88.9
2022-08-16T00:43:19.658Z,89.3
2022-08-16T00:44:19.571Z,89.1
2022-08-16T00:45:18.095Z,88.7
2022-08-16T00:46:34.510Z,88.7
2022-08-16T00:47:17.231Z,89.3
2022-08-16T00:48:30.825Z,89.4
2022-08-16T00:49:19.841Z,89.3
2022-08-16T00:50:17.479Z,89.1
2022-08-16T00:51:17.732Z,89.1
2022-08-16T00:52:30.711Z,89.1
2022-08-16T00:53:17.323Z,89.0
2022-08-16T00:54:21.780Z,89.1
2022-08-16T00:55:18.616Z,89.3
2022-08-16T00:56:57.244Z,89.6
2022-08-16T00:57:16.525Z,89.5
2022-08-16T00:58:32.246Z,89.6
2022-08-16T00:59:18.199Z,89.8
2022-08-16T01:00:23.863Z,89.9
2022-08-16T01:01:17.617Z,90.0
2022-08-16T01:02:31.060Z,90.2
2022-08-16T01:03:29.417Z,90.5
2022-08-16T01:04:30.447Z,90.9
2022-08-16T01:05:18.086Z,91.3
2022-08-16T01:06:32.863Z,91.6
2022-08-16T01:07:17.948Z,91.8
2022-08-16T01:08:35.579Z,91.7
2022-08-16T01:09:18.555Z,91.6
2022-08-16T01:10:17.232Z,91.4
2022-08-16T01:11:16.716Z,91.1
2022-08-16T01:12:26.970Z,91.1
2022-08-16T01:13:17.119Z,91.2
2022-08-16T01:14:20.419Z,91.3
2022-08-16T01:15:17.245Z,91.4
2022-08-16T01:16:20.312Z,91.4
2022-08-16T01:17:16.759Z,91.5
2022-08-16T01:18:39.530Z,91.7
2022-08-16T01:19:18.326Z,91.9
2022-08-16T01:20:30.248Z,91.7
2022-08-16T01:21:22.765Z,91.6
2022-08-16T01:22:48.775Z,91.5
2022-08-16T01:23:17.426Z,91.5
2022-08-16T01:24:44.762Z,91.7
2022-08-16T01:25:17.411Z,91.9
2022-08-16T01:26:33.963Z,91.9
2022-08-16T01:27:17.727Z,92.0
2022-08-16T01:28:20.505Z,92.1
2022-08-16T01:29:17.719Z,92.0
2022-08-16T01:30:21.846Z,91.9
2022-08-16T01:31:16.562Z,92.1
2022-08-16T01:32:31.757Z,92.3
2022-08-16T01:33:16.691Z,92.4
2022-08-16T01:34:26.774Z,92.5
2022-08-16T01:35:17.958Z,92.6
2022-08-16T01:36:17.912Z,92.7
2022-08-16T01:37:17.428Z,92.7
2022-08-16T01:38:20.072Z,92.9
2022-08-16T01:39:16.558Z,93.1
2022-08-16T01:40:17.016Z,93.1
2022-08-16T01:41:20.071Z,93.4
2022-08-16T01:42:20.359Z,93.4
2022-08-16T01:43:16.838Z,93.3
2022-08-16T01:44:18.838Z,93.2
2022-08-16T01:45:19.978Z,93.2
2022-08-16T01:46:30.283Z,93.3
2022-08-16T01:47:17.641Z,93.4
2022-08-16T01:48:20.724Z,93.4
2022-08-16T01:49:18.494Z,93.4
2022-08-16T01:50:41.456Z,93.5
2022-08-16T01:51:17.574Z,93.7
2022-08-16T01:52:30.013Z,93.7
2022-08-16T01:53:16.859Z,93.6
2022-08-16T01:54:30.828Z,93.6
2022-08-16T01:55:16.647Z,93.6
2022-08-16T01:56:25.442Z,93.6
2022-08-16T01:57:22.986Z,93.7
2022-08-16T01:58:21.162Z,93.7
2022-08-16T01:59:17.148Z,93.7
2022-08-16T02:00:19.733Z,93.7
2022-08-16T02:01:17.955Z,93.6
2022-08-16T02:02:29.005Z,93.6
2022-08-16T02:03:24.602Z,93.7
2022-08-16T02:04:29.870Z,93.7
2022-08-16T02:05:18.137Z,93.5
2022-08-16T02:06:33.550Z,93.5
2022-08-16T02:07:17.081Z,93.4
2022-08-16T02:08:33.144Z,93.5
2022-08-16T02:09:18.269Z,93.6
2022-08-16T02:10:18.098Z,93.7
2022-08-16T02:11:16.541Z,93.7
2022-08-16T02:12:39.593Z,93.7
2022-08-16T02:13:16.540Z,93.8
2022-08-16T02:14:21.353Z,93.8
2022-08-16T02:15:16.949Z,93.8
2022-08-16T02:16:19.117Z,93.8
2022-08-16T02:17:16.576Z,93.8
2022-08-16T02:18:18.922Z,93.7
2022-08-16T02:19:17.383Z,93.6
2022-08-16T02:20:16.834Z,93.5
2022-08-16T02:21:31.130Z,93.4
2022-08-16T02:22:34.023Z,93.2
2022-08-16T02:23:17.592Z,93.2
2022-08-16T02:24:32.313Z,93.2
2022-08-16T02:25:17.536Z,93.2
2022-08-16T02:26:19.145Z,93.1
2022-08-16T02:27:16.607Z,93.2
2022-08-16T02:28:19.566Z,93.2
2022-08-16T02:29:20.988Z,93.4
2022-08-16T02:30:36.186Z,93.5
2022-08-16T02:31:16.859Z,93.6
2022-08-16T02:32:49.388Z,93.6
2022-08-16T02:33:17.220Z,93.8
2022-08-16T02:34:16.794Z,93.8
2022-08-16T02:35:23.693Z,94.0
2022-08-16T02:36:42.331Z,94.1
2022-08-16T02:37:21.119Z,94.1
2022-08-16T02:38:19.109Z,94.1
2022-08-16T02:39:17.047Z,94.1
2022-08-16T02:40:16.698Z,94.0
2022-08-16T02:41:18.037Z,94.0
2022-08-16T02:42:19.471Z,94.0
2022-08-16T02:43:16.918Z,93.9
2022-08-16T02:44:20.106Z,93.9
2022-08-16T02:45:16.588Z,93.7
2022-08-16T02:46:17.014Z,94.0
2022-08-16T02:47:25.806Z,94.1
2022-08-16T02:48:30.892Z,94.1
2022-08-16T02:49:16.935Z,94.1
2022-08-16T02:50:53.408Z,94.1
2022-08-16T02:51:16.870Z,93.9
2022-08-16T02:52:29.283Z,93.8
2022-08-16T02:53:18.481Z,93.6
2022-08-16T02:54:17.191Z,93.8
2022-08-16T02:55:40.521Z,93.9
2022-08-16T02:56:17.121Z,93.9
2022-08-16T02:57:16.610Z,93.8
2022-08-16T02:58:16.598Z,93.8
2022-08-16T02:59:17.110Z,93.8
2022-08-16T03:00:32.379Z,93.9
2022-08-16T03:01:33.847Z,93.7
2022-08-16T03:02:16.725Z,93.6
2022-08-16T03:03:18.007Z,93.6
2022-08-16T03:04:30.376Z,93.6
2022-08-16T03:05:16.914Z,93.7
2022-08-16T03:06:36.341Z,93.7
2022-08-16T03:07:27.979Z,93.8
2022-08-16T03:08:50.038Z,93.8
2022-08-16T03:09:17.928Z,93.8
2022-08-16T03:10:17.376Z,93.8
2022-08-16T03:11:22.023Z,93.9
2022-08-16T03:12:18.047Z,93.8
2022-08-16T03:13:18.307Z,93.9
2022-08-16T03:14:25.036Z,93.9
2022-08-16T03:15:17.980Z,94.0
2022-08-16T03:16:33.354Z,94.1
2022-08-16T03:17:18.510Z,94.3
2022-08-16T03:18:34.344Z,94.3
2022-08-16T03:19:16.622Z,94.3
2022-08-16T03:20:18.489Z,94.4
2022-08-16T03:21:18.691Z,94.5
2022-08-16T03:22:29.271Z,94.6
2022-08-16T03:23:16.864Z,94.5
2022-08-16T03:24:29.825Z,94.3
2022-08-16T03:25:17.407Z,94.4
2022-08-16T03:26:18.219Z,94.3
2022-08-16T03:27:19.744Z,94.4
2022-08-16T03:28:17.984Z,94.4
2022-08-16T03:29:16.607Z,94.4
2022-08-16T03:30:18.324Z,94.3
2022-08-16T03:31:17.223Z,94.1
2022-08-16T03:32:19.917Z,94.1
2022-08-16T03:33:17.338Z,94.2
2022-08-16T03:34:17.597Z,94.2
2022-08-16T03:35:18.193Z,94.2
2022-08-16T03:36:30.487Z,94.4
2022-08-16T03:37:17.284Z,94.6
2022-08-16T03:38:32.348Z,94.5
2022-08-16T03:39:20.720Z,94.6
2022-08-16T03:40:31.549Z,94.6
2022-08-16T03:41:29.267Z,94.6
2022-08-16T03:42:23.375Z,94.7
2022-08-16T03:43:21.709Z,94.7
2022-08-16T03:44:40.651Z,94.3
2022-08-16T03:45:16.609Z,94.2
2022-08-16T03:46:44.613Z,94.2
2022-08-16T03:47:19.903Z,94.3
2022-08-16T03:48:19.935Z,94.2
2022-08-16T03:49:17.413Z,94.4
2022-08-16T03:50:26.857Z,94.5
2022-08-16T03:51:25.541Z,94.4
2022-08-16T03:52:20.362Z,94.6
2022-08-16T03:53:17.277Z,94.5
2022-08-16T03:54:17.545Z,94.4
2022-08-16T03:55:16.698Z,94.3
2022-08-16T03:56:21.136Z,94.3
2022-08-16T03:57:16.790Z,94.3
2022-08-16T03:58:17.259Z,94.4
2022-08-16T03:59:16.939Z,94.4
2022-08-16T04:00:35.663Z,94.4
2022-08-16T04:01:17.606Z,94.4
2022-08-16T04:02:31.423Z,94.4
2022-08-16T04:03:18.883Z,94.5
2022-08-16T04:04:32.868Z,94.5
2022-08-16T04:05:17.275Z,94.4
2022-08-16T04:06:18.045Z,94.4
2022-08-16T04:07:16.512Z,94.4
2022-08-16T04:08:24.565Z,94.4
2022-08-16T04:09:16.482Z,94.3
2022-08-16T04:10:35.690Z,94.3
2022-08-16T04:11:17.454Z,94.2
2022-08-16T04:12:52.623Z,94.4
2022-08-16T04:13:59.693Z,94.3
2022-08-16T04:14:32.617Z,94.3
2022-08-16T04:15:17.111Z,94.1
2022-08-16T04:16:28.449Z,94.0
2022-08-16T04:17:17.229Z,94.0
2022-08-16T04:18:17.333Z,93.8
2022-08-16T04:19:16.839Z,93.9
2022-08-16T04:20:31.783Z,94.1
2022-08-16T04:21:29.789Z,94.3
2022-08-16T04:22:17.617Z,94.3
2022-08-16T04:23:17.095Z,94.3
2022-08-16T04:24:16.884Z,94.2
2022-08-16T04:25:17.334Z,94.3
2022-08-16T04:26:17.964Z,94.2
2022-08-16T04:27:17.467Z,94.2
2022-08-16T04:28:54.757Z,94.1
2022-08-16T04:29:25.049Z,94.1
2022-08-16T04:30:30.286Z,94.0
2022-08-16T04:31:16.402Z,93.8
2022-08-16T04:32:20.041Z,93.8
2022-08-16T04:33:16.500Z,93.9
2022-08-16T04:34:16.934Z,94.1
2022-08-16T04:35:16.962Z,94.2
2022-08-16T04:36:20.493Z,94.3
2022-08-16T04:37:17.225Z,94.2
2022-08-16T04:38:21.678Z,94.0
2022-08-16T04:39:17.177Z,93.8
2022-08-16T04:40:22.017Z,93.8
2022-08-16T04:41:17.649Z,93.7
2022-08-16T04:42:16.850Z,93.8
2022-08-16T04:43:17.746Z,93.9
2022-08-16T04:44:32.809Z,93.9
2022-08-16T04:45:18.011Z,94.1
2022-08-16T04:46:30.762Z,94.3
2022-08-16T04:47:24.599Z,94.2
2022-08-16T04:48:32.693Z,93.8
2022-08-16T04:49:16.449Z,93.7
2022-08-16T04:50:18.205Z,93.2
2022-08-16T04:51:16.703Z,93.1
2022-08-16T04:52:32.959Z,92.9
2022-08-16T04:53:19.397Z,92.9
2022-08-16T04:54:19.725Z,93.0
2022-08-16T04:55:17.186Z,93.2
2022-08-16T04:56:17.041Z,93.2
2022-08-16T04:57:16.492Z,92.4
2022-08-16T04:58:41.400Z,92.2
2022-08-16T04:59:17.087Z,92.2
2022-08-16T05:00:31.384Z,92.1
2022-08-16T05:01:17.245Z,92.2
2022-08-16T05:02:41.388Z,92.2
2022-08-16T05:03:19.797Z,92.1
2022-08-16T05:04:20.231Z,92.0
2022-08-16T05:05:18.081Z,91.8
2022-08-16T05:06:18.289Z,91.7
2022-08-16T05:07:20.820Z,91.5
2022-08-16T05:08:30.413Z,91.4
2022-08-16T05:09:17.225Z,91.2
2022-08-16T05:10:23.024Z,91.2
2022-08-16T05:11:18.061Z,90.6
2022-08-16T05:12:30.363Z,90.4
2022-08-16T05:13:17.195Z,90.4
2022-08-16T05:14:45.153Z,90.6
2022-08-16T05:15:18.759Z,90.6
2022-08-16T05:16:23.293Z,90.3
2022-08-16T05:17:16.567Z,90.6
2022-08-16T05:18:23.378Z,90.6
2022-08-16T05:19:16.771Z,90.4
2022-08-16T05:20:35.760Z,90.1
2022-08-16T05:21:16.804Z,89.9
2022-08-16T05:22:18.595Z,89.8
2022-08-16T05:23:17.046Z,90.6
2022-08-16T05:24:25.024Z,90.8
2022-08-16T05:25:16.490Z,90.8
2022-08-16T05:26:20.458Z,90.5
2022-08-16T05:27:16.955Z,90.0
2022-08-16T05:28:16.747Z,90.0
2022-08-16T05:29:20.727Z,89.6
2022-08-16T05:30:34.208Z,89.4
2022-08-16T05:31:17.226Z,89.9
2022-08-16T05:32:32.073Z,89.9
2022-08-16T05:33:18.528Z,89.8
2022-08-16T05:34:20.144Z,89.6
2022-08-16T05:35:16.917Z,89.3
2022-08-16T05:36:21.099Z,89.2
2022-08-16T05:37:16.598Z,89.7
2022-08-16T05:38:31.202Z,89.8
2022-08-16T05:39:17.186Z,89.3
2022-08-16T05:40:18.782Z,88.5
2022-08-16T05:41:18.847Z,88.4
2022-08-16T05:42:19.909Z,88.1
2022-08-16T05:43:17.337Z,88.9
2022-08-16T05:44:25.241Z,88.9
2022-08-16T05:45:23.324Z,88.6
2022-08-16T05:46:30.192Z,88.0
2022-08-16T05:47:20.187Z,87.8
2022-08-16T05:48:18.160Z,87.3
2022-08-16T05:49:23.192Z,86.9
2022-08-16T05:50:19.545Z,86.8
2022-08-16T05:51:35.445Z,86.4
2022-08-16T05:52:20.965Z,86.1
2022-08-16T05:53:16.792Z,85.4
2022-08-16T05:54:24.874Z,86.0
2022-08-16T05:55:17.580Z,85.9
2022-08-16T05:56:19.734Z,85.2
2022-08-16T05:57:17.213Z,85.0
2022-08-16T05:58:32.082Z,85.4
2022-08-16T05:59:17.647Z,85.4
2022-08-16T06:00:22.889Z,85.9
2022-08-16T06:01:17.557Z,85.4
2022-08-16T06:02:17.301Z,84.9
2022-08-16T06:03:18.062Z,84.6
2022-08-16T06:04:34.669Z,84.4
2022-08-16T06:05:17.360Z,84.4
2022-08-16T06:06:29.081Z,84.6
2022-08-16T06:07:26.862Z,84.9
2022-08-16T06:08:30.925Z,85.1
2022-08-16T06:09:18.025Z,84.6
2022-08-16T06:10:32.143Z,84.1
2022-08-16T06:11:19.070Z,83.8
2022-08-16T06:12:28.869Z,84.0
2022-08-16T06:13:17.269Z,83.7
2022-08-16T06:14:17.013Z,82.8
2022-08-16T06:15:17.081Z,82.0
2022-08-16T06:16:18.821Z,81.9
2022-08-16T06:17:21.765Z,81.6
2022-08-16T06:18:17.652Z,81.6
2022-08-16T06:19:17.693Z,81.4
2022-08-16T06:20:25.579Z,80.6
2022-08-16T06:21:24.013Z,79.5
2022-08-16T06:22:37.201Z,79.2
2022-08-16T06:23:18.422Z,79.0
2022-08-16T06:24:52.921Z,79.0
2022-08-16T06:25:16.760Z,78.2
2022-08-16T06:26:18.724Z,77.6
2022-08-16T06:27:17.270Z,77.4
2022-08-16T06:28:35.114Z,77.3
2022-08-16T06:29:17.766Z,77.4
2022-08-16T06:30:19.963Z,76.5
2022-08-16T06:31:16.435Z,76.9
2022-08-16T06:32:29.549Z,76.6
2022-08-16T06:33:22.899Z,76.3
2022-08-16T06:34:31.748Z,76.1
2022-08-16T06:35:16.453Z,75.9
2022-08-16T06:36:16.925Z,75.8
2022-08-16T06:37:18.404Z,75.6
2022-08-16T06:38:32.087Z,75.2
2022-08-16T06:39:17.173Z,75.0
2022-08-16T06:40:16.803Z,75.2
2022-08-16T06:41:17.312Z,75.4
2022-08-16T06:42:18.831Z,75.2
2022-08-16T06:43:16.714Z,74.3
2022-08-16T06:44:21.553Z,73.1
2022-08-16T06:45:16.932Z,72.6
2022-08-16T06:46:18.569Z,71.7
2022-08-16T06:47:17.617Z,70.6
2022-08-16T06:48:19.120Z,70.2
2022-08-16T06:49:16.926Z,70.0
2022-08-16T06:50:29.352Z,69.6
2022-08-16T06:51:16.461Z,69.5
2022-08-16T06:52:58.743Z,69.0
2022-08-16T06:53:19.980Z,68.5
2022-08-16T06:54:16.469Z,68.2
2022-08-16T06:55:17.333Z,67.4
2022-08-16T06:56:23.822Z,67.9
2022-08-16T06:57:17.520Z,68.0
2022-08-16T06:58:23.098Z,68.2
2022-08-16T06:59:17.001Z,67.2
2022-08-16T07:00:25.137Z,66.2
2022-08-16T07:01:25.704Z,66.2
2022-08-16T07:02:32.649Z,65.0
2022-08-16T07:03:32.310Z,65.8
2022-08-16T07:04:32.241Z,65.8
2022-08-16T07:05:17.316Z,66.8
2022-08-16T07:06:16.773Z,65.8
2022-08-16T07:07:17.166Z,65.2
2022-08-16T07:08:19.193Z,64.5
2022-08-16T07:09:17.419Z,63.7
2022-08-16T07:10:17.661Z,63.9
2022-08-16T07:11:17.537Z,64.0
2022-08-16T07:12:16.944Z,64.0
2022-08-16T07:13:58.644Z,65.3
2022-08-16T07:14:27.261Z,64.9
2022-08-16T07:15:18.990Z,64.5
2022-08-16T07:16:16.462Z,63.6
2022-08-16T07:17:17.337Z,63.0
2022-08-16T07:18:17.801Z,64.4
2022-08-16T07:19:19.670Z,64.5
2022-08-16T07:20:34.665Z,64.9
2022-08-16T07:21:16.465Z,63.1
2022-08-16T07:22:36.965Z,63.8
2022-08-16T07:23:18.377Z,63.4
2022-08-16T07:24:30.002Z,62.7
2022-08-16T07:25:17.360Z,61.5
2022-08-16T07:26:25.754Z,62.0
2022-08-16T07:27:18.817Z,62.1
2022-08-16T07:28:24.485Z,61.6
2022-08-16T07:29:17.216Z,61.0
2022-08-16T07:30:38.748Z,61.7
2022-08-16T07:31:20.911Z,61.2
2022-08-16T07:32:17.198Z,60.8
2022-08-16T07:33:53.026Z,60.3
2022-08-16T07:34:17.744Z,60.0
2022-08-16T07:35:18.263Z,59.7
2022-08-16T07:36:22.470Z,58.8
2022-08-16T07:37:17.416Z,59.9
2022-08-16T07:38:20.271Z,59.6
2022-08-16T07:39:16.660Z,59.5
2022-08-16T07:40:17.319Z,59.1
2022-08-16T07:41:16.959Z,58.3
2022-08-16T07:42:35.294Z,58.1
2022-08-16T07:43:16.956Z,57.4
2022-08-16T07:44:17.460Z,56.5
2022-08-16T07:45:17.303Z,56.6
2022-08-16T07:46:38.231Z,56.7
2022-08-16T07:47:18.395Z,57.0
2022-08-16T07:48:19.590Z,56.7
2022-08-16T07:49:18.344Z,57.2
2022-08-16T07:50:55.140Z,56.7
2022-08-16T07:51:18.232Z,55.6
2022-08-16T07:52:20.775Z,55.7
2022-08-16T07:53:17.254Z,55.1
2022-08-16T07:54:32.038Z,54.7
2022-08-16T07:55:17.134Z,54.9
2022-08-16T07:56:19.443Z,54.7
2022-08-16T07:57:19.070Z,54.9
2022-08-16T07:58:34.316Z,55.2
2022-08-16T07:59:17.178Z,55.7
2022-08-16T08:00:19.026Z,56.7
2022-08-16T08:01:16.920Z,56.6
2022-08-16T08:02:21.108Z,59.2
2022-08-16T08:03:17.104Z,58.2
2022-08-16T08:04:16.576Z,56.8
2022-08-16T08:05:35.285Z,54.9
2022-08-16T08:06:18.389Z,54.4
2022-08-16T08:07:16.848Z,54.3
2022-08-16T08:08:49.922Z,55.0
2022-08-16T08:09:17.473Z,54.6
2022-08-16T08:10:29.341Z,53.6
2022-08-16T08:11:18.486Z,53.2
2022-08-16T08:12:31.781Z,52.8
2022-08-16T08:13:17.291Z,52.2
2022-08-16T08:14:29.564Z,52.0
2022-08-16T08:15:25.608Z,52.3
2022-08-16T08:16:19.730Z,51.6
2022-08-16T08:17:18.583Z,51.9
2022-08-16T08:18:29.649Z,52.0
2022-08-16T08:19:17.158Z,52.1
2022-08-16T08:20:27.965Z,52.4
2022-08-16T08:21:18.734Z,52.2
2022-08-16T08:22:22.363Z,50.6
2022-08-16T08:23:17.385Z,50.6
2022-08-16T08:24:16.996Z,50.6
2022-08-16T08:25:19.232Z,51.3
2022-08-16T08:26:18.237Z,52.1
2022-08-16T08:27:23.719Z,51.5
2022-08-16T08:28:17.363Z,50.8
2022-08-16T08:29:24.639Z,50.7
2022-08-16T08:30:50.654Z,50.8
2022-08-16T08:31:17.467Z,50.2
2022-08-16T08:32:59.016Z,50.5
2022-08-16T08:33:16.854Z,50.8
2022-08-16T08:34:18.857Z,50.4
2022-08-16T08:35:17.321Z,50.4
2022-08-16T08:36:22.468Z,50.9
2022-08-16T08:37:17.877Z,50.5
2022-08-16T08:38:44.387Z,49.2
2022-08-16T08:39:21.073Z,49.2
2022-08-16T08:40:18.816Z,49.0
2022-08-16T08:41:19.806Z,48.2
2022-08-16T08:42:26.857Z,48.6
2022-08-16T08:43:18.749Z,48.8
2022-08-16T08:44:30.634Z,50.5
2022-08-16T08:45:43.341Z,50.7
2022-08-16T08:46:21.877Z,51.1
2022-08-16T08:47:16.726Z,51.3
2022-08-16T08:48:34.550Z,49.2
2022-08-16T08:49:18.996Z,48.6
2022-08-16T08:50:31.874Z,47.6
2022-08-16T08:51:17.915Z,46.9
2022-08-16T08:52:33.830Z,46.6
2022-08-16T08:53:17.323Z,46.1
2022-08-16T08:54:20.827Z,45.8
2022-08-16T08:55:16.431Z,48.7
2022-08-16T08:56:25.745Z,48.0
2022-08-16T08:57:17.272Z,46.8
2022-08-16T08:58:18.283Z,45.8
2022-08-16T08:59:20.762Z,45.6
2022-08-16T09:00:21.611Z,46.2
2022-08-16T09:01:31.504Z,46.4
2022-08-16T09:02:19.719Z,46.4
2022-08-16T09:03:17.167Z,47.2
2022-08-16T09:04:17.887Z,47.4
2022-08-16T09:05:16.820Z,47.8
2022-08-16T09:06:18.757Z,48.2
2022-08-16T09:07:18.999Z,47.2
2022-08-16T09:08:17.580Z,46.2
2022-08-16T09:09:17.705Z,45.9
2022-08-16T09:10:21.215Z,46.1
2022-08-16T09:11:18.614Z,45.2
2022-08-16T09:12:35.943Z,45.2
2022-08-16T09:13:18.157Z,44.8
2022-08-16T09:14:24.978Z,43.6
2022-08-16T09:15:21.817Z,43.8
2022-08-16T09:17:00.728Z,44.7
2022-08-16T09:17:45.177Z,45.6
2022-08-16T09:18:35.487Z,46.1
2022-08-16T09:19:32.094Z,45.2
2022-08-16T09:20:20.134Z,45.5
2022-08-16T09:21:17.385Z,44.5
2022-08-16T09:22:21.356Z,44.4
2022-08-16T09:23:18.657Z,44.0
2022-08-16T09:24:32.203Z,47.0
2022-08-16T09:25:33.539Z,47.4
2022-08-16T09:26:45.103Z,46.6
2022-08-16T09:27:16.785Z,45.5
2022-08-16T09:28:38.179Z,45.1
2022-08-16T09:29:44.576Z,45.6
2022-08-16T09:30:31.750Z,45.7
2022-08-16T09:31:17.316Z,45.9
2022-08-16T09:32:30.803Z,45.8
2022-08-16T09:33:18.302Z,47.1
2022-08-16T09:34:19.696Z,48.6
2022-08-16T09:35:17.110Z,46.8
2022-08-16T09:36:31.674Z,46.6
2022-08-16T09:37:19.925Z,46.8
2022-08-16T09:38:31.707Z,45.7
2022-08-16T09:39:17.117Z,44.9
2022-08-16T09:40:29.422Z,44.7
2022-08-16T09:41:17.040Z,45.2
2022-08-16T09:42:19.161Z,45.2
2022-08-16T09:43:59.025Z,46.6
2022-08-16T09:45:09.857Z,51.4
2022-08-16T09:45:18.866Z,48.3
2022-08-16T09:46:33.587Z,48.1
2022-08-16T09:47:23.701Z,48.4
2022-08-16T09:48:37.007Z,48.3
2022-08-16T09:49:20.228Z,47.7
2022-08-16T09:50:23.319Z,48.7
2022-08-16T09:51:18.186Z,50.4
2022-08-16T09:52:17.270Z,50.6
2022-08-16T09:53:17.072Z,51.5
2022-08-16T09:54:17.389Z,51.8
2022-08-16T09:55:16.477Z,51.9
2022-08-16T09:56:17.933Z,52.4
2022-08-16T09:57:17.383Z,53.4
2022-08-16T09:58:39.147Z,53.7
2022-08-16T09:59:19.430Z,53.9
2022-08-16T10:00:45.274Z,53.7
2022-08-16T10:01:19.238Z,52.9
2022-08-16T10:02:27.939Z,53.5
2022-08-16T10:03:16.607Z,54.2
2022-08-16T10:04:34.409Z,53.9
2022-08-16T10:05:17.333Z,53.3
2022-08-16T10:06:17.829Z,53.7
2022-08-16T10:07:18.231Z,54.7
2022-08-16T10:08:27.495Z,54.8
2022-08-16T10:09:17.417Z,54.7
2022-08-16T10:10:30.719Z,55.9
2022-08-16T10:11:24.658Z,56.0
2022-08-16T10:12:20.018Z,56.1
2022-08-16T10:13:16.909Z,56.1
2022-08-16T10:14:24.744Z,56.2
2022-08-16T10:15:17.766Z,56.3
2022-08-16T10:16:22.384Z,56.2
2022-08-16T10:17:17.081Z,56.0
2022-08-16T10:18:41.186Z,57.4
2022-08-16T10:19:19.596Z,58.3
2022-08-16T10:20:18.995Z,58.2
2022-08-16T10:21:16.412Z,58.4
2022-08-16T10:22:17.423Z,58.7
2022-08-16T10:23:17.749Z,59.0
2022-08-16T10:24:28.940Z,58.9
2022-08-16T10:26:59.985Z,58.8
2022-08-16T10:27:00.159Z,58.8
2022-08-16T10:27:30.191Z,58.8
2022-08-16T10:28:29.493Z,58.7
2022-08-16T10:29:21.230Z,58.8
2022-08-16T10:30:29.738Z,59.3
2022-08-16T10:31:43.845Z,59.4
2022-08-16T10:32:21.215Z,60.0
2022-08-16T10:33:17.192Z,59.7
2022-08-16T10:34:31.060Z,59.5
2022-08-16T10:35:18.893Z,59.1
2022-08-16T10:36:38.069Z,59.0
2022-08-16T10:37:32.380Z,59.1
2022-08-16T10:38:27.847Z,58.9
2022-08-16T10:39:17.480Z,58.8
2022-08-16T10:40:30.438Z,58.7
2022-08-16T10:41:18.596Z,58.3
2022-08-16T10:42:20.655Z,58.2
2022-08-16T10:43:18.889Z,57.8
2022-08-16T10:44:17.903Z,57.7
2022-08-16T10:45:17.100Z,57.6
2022-08-16T10:46:33.563Z,57.7
2022-08-16T10:47:17.208Z,57.7
2022-08-16T10:48:28.504Z,57.8
2022-08-16T10:49:18.509Z,57.7
2022-08-16T10:50:20.553Z,57.9
2022-08-16T10:51:17.800Z,57.6
2022-08-16T10:52:19.576Z,57.7
2022-08-16T10:53:21.861Z,58.0
2022-08-16T10:54:30.165Z,57.7
2022-08-16T10:55:44.917Z,57.8
2022-08-16T10:56:44.386Z,58.6
2022-08-16T10:57:17.378Z,58.2
2022-08-16T10:58:17.592Z,58.2
2022-08-16T10:59:33.050Z,58.1
2022-08-16T11:00:22.606Z,57.6
2022-08-16T11:01:40.249Z,57.7
2022-08-16T11:02:57.319Z,58.8
2022-08-16T11:03:44.522Z,58.6
2022-08-16T11:05:05.347Z,58.5
2022-08-16T11:05:17.414Z,57.8
2022-08-16T11:06:21.642Z,57.2
2022-08-16T11:07:45.318Z,57.2
2022-08-16T11:08:16.827Z,57.7
2022-08-16T11:09:29.268Z,58.5
2022-08-16T11:10:59.853Z,58.5
2022-08-16T11:11:20.166Z,57.9
2022-08-16T11:12:16.664Z,57.6
2022-08-16T11:13:58.990Z,57.9
2022-08-16T11:14:17.108Z,58.3
2022-08-16T11:15:17.956Z,57.7
2022-08-16T11:17:00.672Z,57.7
2022-08-16T11:17:17.095Z,57.4
2022-08-16T11:18:36.775Z,58.1
2022-08-16T11:19:17.442Z,57.7
2022-08-16T11:20:42.629Z,57.7
2022-08-16T11:21:29.728Z,57.1
2022-08-16T11:22:39.805Z,56.2
2022-08-16T11:23:16.923Z,55.7
2022-08-16T11:24:40.356Z,56.5
2022-08-16T11:26:06.309Z,56.1
2022-08-16T11:26:24.659Z,55.4
2022-08-16T11:27:24.491Z,54.1
2022-08-16T11:29:12.152Z,53.7
2022-08-16T11:29:16.554Z,53.2
2022-08-16T11:30:20.253Z,52.7
2022-08-16T11:31:16.899Z,54.4
2022-08-16T11:32:30.292Z,54.6
2022-08-16T11:33:17.154Z,53.0
2022-08-16T11:34:20.873Z,53.4
2022-08-16T11:35:17.298Z,53.9
2022-08-16T11:36:28.724Z,53.2
2022-08-16T11:37:34.356Z,53.1
2022-08-16T11:38:47.788Z,52.8
2022-08-16T11:39:18.180Z,53.4
2022-08-16T11:40:19.636Z,52.7
2022-08-16T11:41:19.543Z,52.5
2022-08-16T11:42:30.524Z,51.4
2022-08-16T11:43:17.231Z,51.4
2022-08-16T11:44:40.694Z,51.2
2022-08-16T11:45:19.576Z,50.9
2022-08-16T11:46:43.898Z,50.4
2022-08-16T11:47:16.533Z,50.4
2022-08-16T11:48:16.953Z,50.5
2022-08-16T11:49:17.902Z,51.6
2022-08-16T11:50:17.421Z,51.5
2022-08-16T11:51:16.887Z,51.3
2022-08-16T11:52:17.618Z,51.3
2022-08-16T11:53:16.998Z,50.9
2022-08-16T11:54:22.921Z,50.9
2022-08-16T11:55:16.600Z,50.6
2022-08-16T11:56:37.662Z,50.8
2022-08-16T11:57:18.908Z,51.1
2022-08-16T11:58:20.228Z,51.2
2022-08-16T11:59:16.685Z,51.1
2022-08-16T12:00:33.439Z,51.7
2022-08-16T12:01:16.665Z,52.0
2022-08-16T12:02:30.821Z,52.5
2022-08-16T12:03:17.289Z,52.6
2022-08-16T12:04:20.878Z,52.4
2022-08-16T12:05:17.416Z,52.6
2022-08-16T12:06:30.752Z,53.1
2022-08-16T12:07:17.153Z,52.9
2022-08-16T12:08:18.502Z,52.4
2022-08-16T12:09:17.724Z,52.3
2022-08-16T12:10:17.638Z,53.5
2022-08-16T12:11:17.089Z,53.1
2022-08-16T12:12:18.852Z,52.8
2022-08-16T12:13:17.296Z,52.7
2022-08-16T12:14:17.082Z,52.6
2022-08-16T12:15:16.555Z,52.6
2022-08-16T12:16:20.733Z,52.4
2022-08-16T12:17:17.170Z,52.5
2022-08-16T12:18:21.676Z,52.4
2022-08-16T12:19:17.089Z,51.4
2022-08-16T12:20:19.145Z,51.2
2022-08-16T12:21:19.773Z,51.0
2022-08-16T12:22:20.223Z,51.7
2022-08-16T12:23:17.582Z,51.7
2022-08-16T12:24:17.027Z,51.6
2022-08-16T12:25:16.484Z,52.1
2022-08-16T12:26:16.987Z,52.3
2022-08-16T12:27:16.791Z,52.3
2022-08-16T12:28:37.177Z,51.3
2022-08-16T12:29:16.757Z,51.2
2022-08-16T12:30:31.157Z,50.9
2022-08-16T12:31:16.968Z,50.8
2022-08-16T12:32:36.035Z,51.1
2022-08-16T12:33:26.331Z,51.1
2022-08-16T12:34:19.905Z,51.2
2022-08-16T12:35:16.596Z,50.8
2022-08-16T12:36:17.827Z,50.8
2022-08-16T12:37:17.846Z,50.5
2022-08-16T12:38:38.345Z,50.7
2022-08-16T12:39:20.222Z,50.9
2022-08-16T12:40:25.419Z,50.9
2022-08-16T12:41:25.686Z,51.0
2022-08-16T12:42:17.391Z,50.7
2022-08-16T12:43:16.843Z,50.8
2022-08-16T12:44:20.246Z,50.6
2022-08-16T12:45:19.229Z,50.9
2022-08-16T12:46:16.696Z,51.6
2022-08-16T12:47:17.131Z,51.3
2022-08-16T12:48:33.127Z,50.9
2022-08-16T12:49:17.245Z,51.4
2022-08-16T12:50:16.861Z,51.0
2022-08-16T12:51:24.481Z,50.9
2022-08-16T12:52:33.289Z,50.9
2022-08-16T12:53:16.745Z,50.6
2022-08-16T12:54:18.258Z,50.9
2022-08-16T12:55:16.717Z,51.0
2022-08-16T12:56:19.000Z,50.9
2022-08-16T12:57:17.338Z,51.4
2022-08-16T12:58:47.723Z,51.0
2022-08-16T12:59:20.773Z,51.1
2022-08-16T13:00:32.956Z,51.3
2022-08-16T13:01:17.592Z,51.4
2022-08-16T13:02:33.501Z,51.0
2022-08-16T13:03:16.837Z,51.1
2022-08-16T13:04:24.533Z,51.6
2022-08-16T13:05:16.544Z,51.5
2022-08-16T13:06:20.394Z,51.7
2022-08-16T13:07:17.429Z,51.4
2022-08-16T13:08:20.467Z,51.4
2022-08-16T13:09:16.958Z,51.5
2022-08-16T13:10:32.154Z,52.0
2022-08-16T13:11:18.041Z,51.4
2022-08-16T13:12:17.140Z,51.2
2022-08-16T13:13:16.597Z,51.1
2022-08-16T13:14:31.095Z,50.5
2022-08-16T13:15:16.475Z,50.4
2022-08-16T13:16:25.108Z,50.6
2022-08-16T13:17:19.542Z,50.5
2022-08-16T13:18:33.514Z,50.8